METAR Data

Data at: 0008 UTC 09 Apr 2020

LOWL 082350Z AUTO 24003KT 9999 NCD 06/M02 Q1023

TAF LOWL 082315Z 0900/0924 27003KT CAVOK TX22/0915Z TN03/0904Z
  TEMPO 0910/0916 29008KT